sensor_id;sensor_type;location;lat;lon;timestamp;pressure;altitude;pressure_sealevel;temperature;humidity
52032;BME280;38044;45.148;39.604;2024-01-15T00:02:20;100788.34;;;-4.49;74.57
52032;BME280;38044;45.148;39.604;2024-01-15T00:04:46;100790.38;;;-4.44;74.48
52032;BME280;38044;45.148;39.604;2024-01-15T00:07:12;100783.69;;;-4.47;74.81
52032;BME280;38044;45.148;39.604;2024-01-15T00:09:39;100795.88;;;-4.39;74.57
52032;BME280;38044;45.148;39.604;2024-01-15T00:12:05;100799.31;;;-4.39;74.75
52032;BME280;38044;45.148;39.604;2024-01-15T00:14:31;100778.66;;;-4.48;74.35
52032;BME280;38044;45.148;39.604;2024-01-15T00:16:57;100782.72;;;-4.46;74.24
52032;BME280;38044;45.148;39.604;2024-01-15T00:19:23;100766.66;;;-4.58;74.29
52032;BME280;38044;45.148;39.604;2024-01-15T00:21:49;100787.81;;;-4.59;73.85
52032;BME280;38044;45.148;39.604;2024-01-15T00:24:15;100773.94;;;-4.74;74.26
52032;BME280;38044;45.148;39.604;2024-01-15T00:26:41;100795.03;;;-4.61;74.23
52032;BME280;38044;45.148;39.604;2024-01-15T00:29:08;100787.81;;;-4.59;74.77
52032;BME280;38044;45.148;39.604;2024-01-15T00:31:34;100787.13;;;-4.46;74.83
52032;BME280;38044;45.148;39.604;2024-01-15T00:34:00;100765.25;;;-4.54;74.55
52032;BME280;38044;45.148;39.604;2024-01-15T00:36:26;100774.47;;;-4.43;74.42
52032;BME280;38044;45.148;39.604;2024-01-15T00:38:53;100763.06;;;-4.50;74.46
52032;BME280;38044;45.148;39.604;2024-01-15T00:41:19;100768.19;;;-4.42;73.94
52032;BME280;38044;45.148;39.604;2024-01-15T00:43:45;100752.69;;;-4.58;73.74
52032;BME280;38044;45.148;39.604;2024-01-15T00:46:11;100763.72;;;-4.48;74.23
52032;BME280;38044;45.148;39.604;2024-01-15T00:48:37;100765.69;;;-4.50;74.12
52032;BME280;38044;45.148;39.604;2024-01-15T00:51:06;100741.22;;;-4.57;74.41
52032;BME280;38044;45.148;39.604;2024-01-15T00:53:32;100736.53;;;-4.62;74.79
52032;BME280;38044;45.148;39.604;2024-01-15T00:55:58;100746.34;;;-4.49;74.86
52032;BME280;38044;45.148;39.604;2024-01-15T00:58:25;100750.59;;;-4.48;74.88
52032;BME280;38044;45.148;39.604;2024-01-15T01:00:51;100740.63;;;-4.53;75.42
52032;BME280;38044;45.148;39.604;2024-01-15T01:03:17;100746.09;;;-4.54;75.31
52032;BME280;38044;45.148;39.604;2024-01-15T01:05:42;100754.44;;;-4.44;75.20
52032;BME280;38044;45.148;39.604;2024-01-15T01:08:09;100745.59;;;-4.43;74.93
52032;BME280;38044;45.148;39.604;2024-01-15T01:10:35;100757.31;;;-4.39;74.92
52032;BME280;38044;45.148;39.604;2024-01-15T01:13:01;100768.59;;;-4.45;74.96
52032;BME280;38044;45.148;39.604;2024-01-15T01:15:27;100752.31;;;-4.55;74.98
52032;BME280;38044;45.148;39.604;2024-01-15T01:17:53;100766.00;;;-4.60;74.82
52032;BME280;38044;45.148;39.604;2024-01-15T01:20:18;100781.69;;;-4.66;75.41
52032;BME280;38044;45.148;39.604;2024-01-15T01:22:44;100776.56;;;-4.53;75.36
52032;BME280;38044;45.148;39.604;2024-01-15T01:25:10;100760.44;;;-4.50;74.95
52032;BME280;38044;45.148;39.604;2024-01-15T01:27:36;100778.38;;;-4.32;74.98
52032;BME280;38044;45.148;39.604;2024-01-15T01:30:02;100779.81;;;-4.08;75.08
52032;BME280;38044;45.148;39.604;2024-01-15T01:32:28;100785.38;;;-4.18;74.51
52032;BME280;38044;45.148;39.604;2024-01-15T01:34:54;100782.88;;;-4.04;74.41
52032;BME280;38044;45.148;39.604;2024-01-15T01:37:20;100783.81;;;-4.12;74.18
52032;BME280;38044;45.148;39.604;2024-01-15T01:39:46;100764.31;;;-4.24;74.33
52032;BME280;38044;45.148;39.604;2024-01-15T01:42:12;100773.09;;;-4.17;74.30
52032;BME280;38044;45.148;39.604;2024-01-15T01:44:38;100787.88;;;-4.10;74.70
52032;BME280;38044;45.148;39.604;2024-01-15T01:47:05;100781.72;;;-3.95;73.74
52032;BME280;38044;45.148;39.604;2024-01-15T01:49:31;100757.25;;;-4.02;74.12
52032;BME280;38044;45.148;39.604;2024-01-15T01:51:59;100780.91;;;-3.74;73.84
52032;BME280;38044;45.148;39.604;2024-01-15T01:54:28;100780.56;;;-3.65;73.79
52032;BME280;38044;45.148;39.604;2024-01-15T01:56:55;100775.72;;;-3.61;73.47
52032;BME280;38044;45.148;39.604;2024-01-15T01:59:23;100771.72;;;-3.57;73.36
52032;BME280;38044;45.148;39.604;2024-01-15T02:01:50;100768.84;;;-3.62;73.12
52032;BME280;38044;45.148;39.604;2024-01-15T02:04:17;100767.81;;;-3.68;73.03
52032;BME280;38044;45.148;39.604;2024-01-15T02:06:43;100785.16;;;-3.73;74.29
52032;BME280;38044;45.148;39.604;2024-01-15T02:09:08;100758.22;;;-3.82;74.47
52032;BME280;38044;45.148;39.604;2024-01-15T02:11:36;100777.13;;;-3.65;73.94
52032;BME280;38044;45.148;39.604;2024-01-15T02:14:02;100778.56;;;-3.63;73.75
52032;BME280;38044;45.148;39.604;2024-01-15T02:16:28;100797.66;;;-3.47;74.63
52032;BME280;38044;45.148;39.604;2024-01-15T02:18:54;100798.69;;;-3.42;74.56
52032;BME280;38044;45.148;39.604;2024-01-15T02:21:20;100811.50;;;-3.32;74.35
52032;BME280;38044;45.148;39.604;2024-01-15T02:23:46;100791.81;;;-3.43;73.67
52032;BME280;38044;45.148;39.604;2024-01-15T02:26:12;100781.19;;;-3.28;74.33
52032;BME280;38044;45.148;39.604;2024-01-15T02:28:39;100769.88;;;-3.28;74.43
52032;BME280;38044;45.148;39.604;2024-01-15T02:31:07;100748.03;;;-3.29;74.57
52032;BME280;38044;45.148;39.604;2024-01-15T02:33:32;100731.03;;;-3.26;74.73
52032;BME280;38044;45.148;39.604;2024-01-15T02:35:58;100745.22;;;-3.21;75.22
52032;BME280;38044;45.148;39.604;2024-01-15T02:38:24;100743.16;;;-3.32;75.36
52032;BME280;38044;45.148;39.604;2024-01-15T02:40:50;100757.56;;;-3.21;75.84
52032;BME280;38044;45.148;39.604;2024-01-15T02:43:16;100761.81;;;-3.20;75.97
52032;BME280;38044;45.148;39.604;2024-01-15T02:45:45;100745.66;;;-3.17;75.64
52032;BME280;38044;45.148;39.604;2024-01-15T02:48:11;100730.28;;;-3.20;75.44
52032;BME280;38044;45.148;39.604;2024-01-15T02:50:37;100715.06;;;-3.25;75.88
52032;BME280;38044;45.148;39.604;2024-01-15T02:53:03;100699.66;;;-3.34;76.41
52032;BME280;38044;45.148;39.604;2024-01-15T02:55:29;100723.47;;;-3.43;77.01
52032;BME280;38044;45.148;39.604;2024-01-15T02:57:55;100708.09;;;-3.46;77.47
52032;BME280;38044;45.148;39.604;2024-01-15T03:00:21;100731.88;;;-3.19;78.54
52032;BME280;38044;45.148;39.604;2024-01-15T03:02:48;100729.34;;;-2.92;80.79
52032;BME280;38044;45.148;39.604;2024-01-15T03:05:15;100728.44;;;-2.52;82.90
52032;BME280;38044;45.148;39.604;2024-01-15T03:07:42;100720.16;;;-2.22;83.96
52032;BME280;38044;45.148;39.604;2024-01-15T03:10:08;100718.72;;;-1.98;84.30
52032;BME280;38044;45.148;39.604;2024-01-15T03:12:34;100728.41;;;-1.72;84.65
52032;BME280;38044;45.148;39.604;2024-01-15T03:15:00;100698.97;;;-1.55;85.24
52032;BME280;38044;45.148;39.604;2024-01-15T03:17:27;100683.88;;;-1.35;85.26
52032;BME280;38044;45.148;39.604;2024-01-15T03:19:53;100688.50;;;-1.24;84.58
52032;BME280;38044;45.148;39.604;2024-01-15T03:22:19;100687.25;;;-1.15;84.13
52032;BME280;38044;45.148;39.604;2024-01-15T03:24:46;100690.53;;;-1.19;83.47
52032;BME280;38044;45.148;39.604;2024-01-15T03:27:11;100700.69;;;-1.23;82.73
52032;BME280;38044;45.148;39.604;2024-01-15T03:29:37;100709.03;;;-1.26;82.11
52032;BME280;38044;45.148;39.604;2024-01-15T03:32:05;100726.66;;;-1.26;81.84
52032;BME280;38044;45.148;39.604;2024-01-15T03:34:31;100707.63;;;-1.35;81.55
52032;BME280;38044;45.148;39.604;2024-01-15T03:36:56;100724.63;;;-1.24;81.36
52032;BME280;38044;45.148;39.604;2024-01-15T03:39:23;100726.47;;;-1.25;81.21
52032;BME280;38044;45.148;39.604;2024-01-15T03:41:49;100710.69;;;-1.38;80.65
52032;BME280;38044;45.148;39.604;2024-01-15T03:44:14;100739.66;;;-1.25;80.20
52032;BME280;38044;45.148;39.604;2024-01-15T03:46:40;100739.25;;;-1.22;79.71
52032;BME280;38044;45.148;39.604;2024-01-15T03:49:06;100741.50;;;-1.25;79.07
52032;BME280;38044;45.148;39.604;2024-01-15T03:51:32;100744.97;;;-1.31;78.15
52032;BME280;38044;45.148;39.604;2024-01-15T03:53:58;100736.06;;;-1.37;77.51
52032;BME280;38044;45.148;39.604;2024-01-15T03:56:24;100734.88;;;-1.54;76.91
52032;BME280;38044;45.148;39.604;2024-01-15T03:58:50;100724.38;;;-1.74;76.67
52032;BME280;38044;45.148;39.604;2024-01-15T04:01:15;100738.56;;;-1.82;77.04
52032;BME280;38044;45.148;39.604;2024-01-15T04:03:41;100740.81;;;-1.92;77.34
52032;BME280;38044;45.148;39.604;2024-01-15T04:06:07;100745.47;;;-1.94;77.49
52032;BME280;38044;45.148;39.604;2024-01-15T04:08:33;100758.22;;;-1.98;77.31
52032;BME280;38044;45.148;39.604;2024-01-15T04:10:59;100777.69;;;-1.92;77.71
52032;BME280;38044;45.148;39.604;2024-01-15T04:13:25;100756.44;;;-1.97;78.17
52032;BME280;38044;45.148;39.604;2024-01-15T04:15:51;100776.69;;;-1.91;78.92
52032;BME280;38044;45.148;39.604;2024-01-15T04:18:17;100789.66;;;-1.90;79.39
52032;BME280;38044;45.148;39.604;2024-01-15T04:20:45;100805.47;;;-1.70;78.92
52032;BME280;38044;45.148;39.604;2024-01-15T04:23:11;100794.50;;;-1.53;79.12
52032;BME280;38044;45.148;39.604;2024-01-15T04:25:37;100782.50;;;-1.49;79.04
52032;BME280;38044;45.148;39.604;2024-01-15T04:28:03;100782.50;;;-1.36;79.37
52032;BME280;38044;45.148;39.604;2024-01-15T04:30:28;100783.13;;;-1.34;79.63
52032;BME280;38044;45.148;39.604;2024-01-15T04:32:54;100779.88;;;-1.36;79.57
52032;BME280;38044;45.148;39.604;2024-01-15T04:35:20;100781.88;;;-1.38;79.91
52032;BME280;38044;45.148;39.604;2024-01-15T04:37:46;100766.69;;;-1.36;80.80
52032;BME280;38044;45.148;39.604;2024-01-15T04:40:12;100779.97;;;-1.04;83.50
52032;BME280;38044;45.148;39.604;2024-01-15T04:42:38;100779.63;;;-0.70;85.39
52032;BME280;38044;45.148;39.604;2024-01-15T04:45:04;100778.75;;;-0.25;86.54
52032;BME280;38044;45.148;39.604;2024-01-15T04:47:30;100785.19;;;0.11;87.50
52032;BME280;38044;45.148;39.604;2024-01-15T04:49:56;100774.00;;;0.34;87.30
52032;BME280;38044;45.148;39.604;2024-01-15T04:52:21;100769.91;;;0.56;88.08
52032;BME280;38044;45.148;39.604;2024-01-15T04:54:47;100777.88;;;0.75;87.60
52032;BME280;38044;45.148;39.604;2024-01-15T04:57:13;100783.53;;;0.97;87.78
52032;BME280;38044;45.148;39.604;2024-01-15T04:59:40;100784.19;;;1.10;87.66
52032;BME280;38044;45.148;39.604;2024-01-15T05:02:06;100776.81;;;1.12;87.36
52032;BME280;38044;45.148;39.604;2024-01-15T05:04:32;100781.06;;;1.32;87.43
52032;BME280;38044;45.148;39.604;2024-01-15T05:06:58;100768.38;;;1.34;87.16
52032;BME280;38044;45.148;39.604;2024-01-15T05:09:24;100780.31;;;1.43;86.72
52032;BME280;38044;45.148;39.604;2024-01-15T05:11:50;100789.56;;;1.52;86.35
52032;BME280;38044;45.148;39.604;2024-01-15T05:14:16;100784.97;;;1.60;86.20
52032;BME280;38044;45.148;39.604;2024-01-15T05:16:48;100795.13;;;1.74;86.22
52032;BME280;38044;45.148;39.604;2024-01-15T05:19:14;100798.38;;;1.76;85.71
52032;BME280;38044;45.148;39.604;2024-01-15T05:21:40;100786.06;;;1.82;85.76
52032;BME280;38044;45.148;39.604;2024-01-15T05:24:08;100790.22;;;1.90;85.29
52032;BME280;38044;45.148;39.604;2024-01-15T05:26:34;100779.28;;;1.86;84.81
52032;BME280;38044;45.148;39.604;2024-01-15T05:28:59;100803.06;;;2.05;84.89
52032;BME280;38044;45.148;39.604;2024-01-15T05:31:25;100803.53;;;2.13;84.48
52032;BME280;38044;45.148;39.604;2024-01-15T05:33:51;100812.41;;;2.19;84.33
52032;BME280;38044;45.148;39.604;2024-01-15T05:36:17;100830.78;;;2.56;84.19
52032;BME280;38044;45.148;39.604;2024-01-15T05:38:43;100822.88;;;3.08;83.02
52032;BME280;38044;45.148;39.604;2024-01-15T05:41:09;100820.75;;;3.62;81.21
52032;BME280;38044;45.148;39.604;2024-01-15T05:43:35;100816.09;;;3.86;79.94
52032;BME280;38044;45.148;39.604;2024-01-15T05:46:01;100813.22;;;4.04;78.99
52032;BME280;38044;45.148;39.604;2024-01-15T05:48:27;100820.66;;;4.36;78.10
52032;BME280;38044;45.148;39.604;2024-01-15T05:50:53;100799.16;;;4.60;77.02
52032;BME280;38044;45.148;39.604;2024-01-15T05:53:18;100823.28;;;4.70;76.40
52032;BME280;38044;45.148;39.604;2024-01-15T05:55:44;100821.75;;;4.57;76.36
52032;BME280;38044;45.148;39.604;2024-01-15T05:58:10;100818.97;;;4.47;76.40
52032;BME280;38044;45.148;39.604;2024-01-15T06:00:36;100812.41;;;4.38;76.51
52032;BME280;38044;45.148;39.604;2024-01-15T06:03:03;100824.28;;;4.30;77.13
52032;BME280;38044;45.148;39.604;2024-01-15T06:05:29;100838.06;;;4.10;77.52
52032;BME280;38044;45.148;39.604;2024-01-15T06:07:55;100843.28;;;3.88;78.21
52032;BME280;38044;45.148;39.604;2024-01-15T06:10:21;100856.78;;;3.70;78.90
52032;BME280;38044;45.148;39.604;2024-01-15T06:12:47;100856.84;;;3.58;79.42
52032;BME280;38044;45.148;39.604;2024-01-15T06:15:13;100856.66;;;3.36;80.06
52032;BME280;38044;45.148;39.604;2024-01-15T06:17:39;100853.44;;;3.22;80.65
52032;BME280;38044;45.148;39.604;2024-01-15T06:20:05;100872.63;;;3.24;81.34
52032;BME280;38044;45.148;39.604;2024-01-15T06:22:31;100869.06;;;3.19;81.88
52032;BME280;38044;45.148;39.604;2024-01-15T06:24:57;100880.81;;;3.23;81.68
52032;BME280;38044;45.148;39.604;2024-01-15T06:27:23;100887.66;;;3.19;81.73
52032;BME280;38044;45.148;39.604;2024-01-15T06:29:49;100871.16;;;3.05;82.26
52032;BME280;38044;45.148;39.604;2024-01-15T06:32:15;100885.69;;;3.14;82.15
52032;BME280;38044;45.148;39.604;2024-01-15T06:34:41;100886.03;;;3.06;82.21
52032;BME280;38044;45.148;39.604;2024-01-15T06:37:06;100887.91;;;2.93;82.57
52032;BME280;38044;45.148;39.604;2024-01-15T06:39:32;100885.94;;;3.01;83.07
52032;BME280;38044;45.148;39.604;2024-01-15T06:41:58;100873.47;;;3.01;82.92
52032;BME280;38044;45.148;39.604;2024-01-15T06:44:24;100879.13;;;3.05;82.46
52032;BME280;38044;45.148;39.604;2024-01-15T06:46:49;100860.41;;;3.00;82.88
52032;BME280;38044;45.148;39.604;2024-01-15T06:49:17;100886.41;;;3.09;83.22
52032;BME280;38044;45.148;39.604;2024-01-15T06:51:42;100881.63;;;3.23;83.07
52032;BME280;38044;45.148;39.604;2024-01-15T06:54:08;100897.53;;;3.47;82.88
52032;BME280;38044;45.148;39.604;2024-01-15T06:56:35;100893.47;;;3.56;82.45
52032;BME280;38044;45.148;39.604;2024-01-15T06:59:01;100891.75;;;3.50;82.16
52032;BME280;38044;45.148;39.604;2024-01-15T07:01:28;100892.91;;;3.42;81.92
52032;BME280;38044;45.148;39.604;2024-01-15T07:03:54;100902.31;;;3.33;81.79
52032;BME280;38044;45.148;39.604;2024-01-15T07:06:20;100903.72;;;3.24;82.24
52032;BME280;38044;45.148;39.604;2024-01-15T07:08:47;100909.03;;;3.12;82.57
52032;BME280;38044;45.148;39.604;2024-01-15T07:11:13;100900.13;;;2.94;83.13
52032;BME280;38044;45.148;39.604;2024-01-15T07:13:39;100900.59;;;2.91;83.54
52032;BME280;38044;45.148;39.604;2024-01-15T07:16:05;100911.81;;;2.93;83.76
52032;BME280;38044;45.148;39.604;2024-01-15T07:18:30;100915.84;;;2.84;83.96
52032;BME280;38044;45.148;39.604;2024-01-15T07:20:56;100930.19;;;2.83;84.43
52032;BME280;38044;45.148;39.604;2024-01-15T07:23:22;100929.00;;;2.79;84.79
52032;BME280;38044;45.148;39.604;2024-01-15T07:25:48;100915.72;;;2.79;85.17
52032;BME280;38044;45.148;39.604;2024-01-15T07:28:14;100916.06;;;2.94;85.58
52032;BME280;38044;45.148;39.604;2024-01-15T07:30:39;100900.13;;;2.94;86.26
52032;BME280;38044;45.148;39.604;2024-01-15T07:33:05;100918.38;;;3.03;86.59
52032;BME280;38044;45.148;39.604;2024-01-15T07:35:31;100912.03;;;3.04;86.49
52032;BME280;38044;45.148;39.604;2024-01-15T07:37:57;100916.91;;;3.07;86.53
52032;BME280;38044;45.148;39.604;2024-01-15T07:40:24;100914.09;;;3.13;87.28
52032;BME280;38044;45.148;39.604;2024-01-15T07:42:51;100919.41;;;3.13;87.66
52032;BME280;38044;45.148;39.604;2024-01-15T07:45:16;100901.75;;;3.07;87.46
52032;BME280;38044;45.148;39.604;2024-01-15T07:47:43;100921.63;;;3.05;87.25
52032;BME280;38044;45.148;39.604;2024-01-15T07:50:10;100929.25;;;3.13;87.49
52032;BME280;38044;45.148;39.604;2024-01-15T07:52:36;100912.25;;;3.02;87.65
52032;BME280;38044;45.148;39.604;2024-01-15T07:55:02;100907.09;;;2.96;87.32
52032;BME280;38044;45.148;39.604;2024-01-15T07:57:31;100908.22;;;3.00;87.81
52032;BME280;38044;45.148;39.604;2024-01-15T07:59:57;100898.53;;;2.93;88.16
52032;BME280;38044;45.148;39.604;2024-01-15T08:02:22;100892.28;;;3.00;88.18
52032;BME280;38044;45.148;39.604;2024-01-15T08:04:48;100895.75;;;3.12;88.00
52032;BME280;38044;45.148;39.604;2024-01-15T08:07:14;100898.03;;;3.20;88.12
52032;BME280;38044;45.148;39.604;2024-01-15T08:09:40;100882.56;;;3.17;88.06
52032;BME280;38044;45.148;39.604;2024-01-15T08:12:06;100884.63;;;3.38;88.15
52032;BME280;38044;45.148;39.604;2024-01-15T08:14:32;100877.94;;;3.65;87.44
52032;BME280;38044;45.148;39.604;2024-01-15T08:16:58;100858.63;;;4.15;86.32
52032;BME280;38044;45.148;39.604;2024-01-15T08:19:24;100886.13;;;4.71;85.15
52032;BME280;38044;45.148;39.604;2024-01-15T08:21:50;100879.09;;;5.20;83.76
52032;BME280;38044;45.148;39.604;2024-01-15T08:24:16;100864.16;;;5.41;82.31
52032;BME280;38044;45.148;39.604;2024-01-15T08:26:42;100865.63;;;5.54;81.87
52032;BME280;38044;45.148;39.604;2024-01-15T08:29:08;100881.25;;;5.68;81.57
52032;BME280;38044;45.148;39.604;2024-01-15T08:31:34;100882.16;;;6.00;81.53
52032;BME280;38044;45.148;39.604;2024-01-15T08:34:00;100888.88;;;6.35;80.23
52032;BME280;38044;45.148;39.604;2024-01-15T08:36:27;100872.84;;;6.35;79.87
52032;BME280;38044;45.148;39.604;2024-01-15T08:38:55;100880.63;;;6.74;79.84
52032;BME280;38044;45.148;39.604;2024-01-15T08:41:21;100880.06;;;6.67;78.86
52032;BME280;38044;45.148;39.604;2024-01-15T08:43:46;100870.88;;;6.52;78.45
52032;BME280;38044;45.148;39.604;2024-01-15T08:46:12;100890.56;;;6.46;78.36
52032;BME280;38044;45.148;39.604;2024-01-15T08:48:38;100873.84;;;6.24;78.59
52032;BME280;38044;45.148;39.604;2024-01-15T08:51:05;100890.22;;;6.05;77.91
52032;BME280;38044;45.148;39.604;2024-01-15T08:53:31;100896.41;;;5.89;78.10
52032;BME280;38044;45.148;39.604;2024-01-15T08:55:58;100902.66;;;5.73;78.58
52032;BME280;38044;45.148;39.604;2024-01-15T08:58:24;100909.25;;;5.65;78.63
52032;BME280;38044;45.148;39.604;2024-01-15T09:00:51;100885.97;;;5.60;78.90
52032;BME280;38044;45.148;39.604;2024-01-15T09:03:16;100895.19;;;5.75;79.30
52032;BME280;38044;45.148;39.604;2024-01-15T09:05:42;100895.34;;;5.63;79.24
52032;BME280;38044;45.148;39.604;2024-01-15T09:08:08;100900.19;;;5.44;78.96
52032;BME280;38044;45.148;39.604;2024-01-15T09:10:35;100892.69;;;5.41;79.36
52032;BME280;38044;45.148;39.604;2024-01-15T09:13:00;100894.38;;;5.47;79.38
52032;BME280;38044;45.148;39.604;2024-01-15T09:15:26;100878.28;;;5.20;79.12
52032;BME280;38044;45.148;39.604;2024-01-15T09:17:53;100892.47;;;5.26;79.58
52032;BME280;38044;45.148;39.604;2024-01-15T09:20:18;100874.13;;;5.07;79.60
52032;BME280;38044;45.148;39.604;2024-01-15T09:22:44;100894.63;;;5.24;80.11
52032;BME280;38044;45.148;39.604;2024-01-15T09:25:10;100881.22;;;5.18;79.78
52032;BME280;38044;45.148;39.604;2024-01-15T09:27:37;100898.25;;;5.39;80.14
52032;BME280;38044;45.148;39.604;2024-01-15T09:30:03;100898.53;;;5.38;79.58
52032;BME280;38044;45.148;39.604;2024-01-15T09:32:30;100888.66;;;5.38;79.49
52032;BME280;38044;45.148;39.604;2024-01-15T09:34:56;100900.69;;;5.41;79.63
52032;BME280;38044;45.148;39.604;2024-01-15T09:37:22;100890.63;;;5.48;79.38
52032;BME280;38044;45.148;39.604;2024-01-15T09:39:49;100881.19;;;5.62;79.18
52032;BME280;38044;45.148;39.604;2024-01-15T09:42:16;100857.28;;;5.95;79.00
52032;BME280;38044;45.148;39.604;2024-01-15T09:44:42;100872.78;;;6.25;78.25
52032;BME280;38044;45.148;39.604;2024-01-15T09:47:09;100870.81;;;6.47;77.71
52032;BME280;38044;45.148;39.604;2024-01-15T09:49:35;100853.97;;;6.84;76.33
52032;BME280;38044;45.148;39.604;2024-01-15T09:52:02;100865.94;;;7.24;75.16
52032;BME280;38044;45.148;39.604;2024-01-15T09:54:28;100857.31;;;8.26;72.67
52032;BME280;38044;45.148;39.604;2024-01-15T09:56:55;100847.44;;;8.67;70.94
52032;BME280;38044;45.148;39.604;2024-01-15T09:59:22;100850.50;;;9.15;69.66
52032;BME280;38044;45.148;39.604;2024-01-15T10:01:50;100849.44;;;9.71;67.77
52032;BME280;38044;45.148;39.604;2024-01-15T10:04:16;100837.53;;;10.22;66.56
52032;BME280;38044;45.148;39.604;2024-01-15T10:06:44;100852.03;;;10.21;65.78
52032;BME280;38044;45.148;39.604;2024-01-15T10:09:13;100839.53;;;9.61;65.72
52032;BME280;38044;45.148;39.604;2024-01-15T10:11:42;100846.69;;;9.32;66.37
52032;BME280;38044;45.148;39.604;2024-01-15T10:14:09;100837.72;;;9.52;65.43
52032;BME280;38044;45.148;39.604;2024-01-15T10:16:38;100840.41;;;9.96;65.05
52032;BME280;38044;45.148;39.604;2024-01-15T10:19:04;100829.09;;;10.68;63.41
52032;BME280;38044;45.148;39.604;2024-01-15T10:21:34;100842.28;;;11.36;62.48
52032;BME280;38044;45.148;39.604;2024-01-15T10:24:03;100832.00;;;11.38;62.18
52032;BME280;38044;45.148;39.604;2024-01-15T10:26:31;100833.84;;;11.43;60.17
52032;BME280;38044;45.148;39.604;2024-01-15T10:28:58;100829.97;;;11.30;60.53
52032;BME280;38044;45.148;39.604;2024-01-15T10:31:25;100821.22;;;11.19;60.57
52032;BME280;38044;45.148;39.604;2024-01-15T10:33:52;100823.53;;;11.07;59.97
52032;BME280;38044;45.148;39.604;2024-01-15T10:36:18;100811.19;;;10.82;60.53
52032;BME280;38044;45.148;39.604;2024-01-15T10:38:45;100826.84;;;10.75;60.96
52032;BME280;38044;45.148;39.604;2024-01-15T10:41:12;100809.25;;;10.58;60.21
52032;BME280;38044;45.148;39.604;2024-01-15T10:43:38;100821.16;;;10.52;61.04
52032;BME280;38044;45.148;39.604;2024-01-15T10:46:06;100822.28;;;10.46;61.61
52032;BME280;38044;45.148;39.604;2024-01-15T10:48:33;100809.56;;;10.28;61.88
52032;BME280;38044;45.148;39.604;2024-01-15T10:51:01;100813.59;;;9.91;62.84
52032;BME280;38044;45.148;39.604;2024-01-15T10:53:38;100821.91;;;9.50;63.73
52032;BME280;38044;45.148;39.604;2024-01-15T10:56:05;100801.78;;;8.93;64.47
52032;BME280;38044;45.148;39.604;2024-01-15T10:58:33;100812.59;;;8.62;64.91
52032;BME280;38044;45.148;39.604;2024-01-15T11:01:01;100806.19;;;8.27;66.47
52032;BME280;38044;45.148;39.604;2024-01-15T11:03:27;100820.66;;;8.21;67.02
52032;BME280;38044;45.148;39.604;2024-01-15T11:05:53;100819.84;;;8.16;67.26
52032;BME280;38044;45.148;39.604;2024-01-15T11:08:20;100811.00;;;8.10;66.92
52032;BME280;38044;45.148;39.604;2024-01-15T11:10:51;100806.69;;;8.29;62.83
52032;BME280;38044;45.148;39.604;2024-01-15T11:16:10;100811.53;;;8.53;60.44
52032;BME280;38044;45.148;39.604;2024-01-15T11:18:41;100805.09;;;8.54;60.35
52032;BME280;38044;45.148;39.604;2024-01-15T11:23:57;100813.63;;;8.66;59.85
52032;BME280;38044;45.148;39.604;2024-01-15T11:29:00;100793.06;;;8.41;59.76
52032;BME280;38044;45.148;39.604;2024-01-15T11:34:09;100813.16;;;8.39;60.61
52032;BME280;38044;45.148;39.604;2024-01-15T11:41:58;100814.75;;;8.19;60.73
52032;BME280;38044;45.148;39.604;2024-01-15T11:44:24;100825.44;;;8.09;61.31
52032;BME280;38044;45.148;39.604;2024-01-15T11:47:03;100812.06;;;8.09;60.96
52032;BME280;38044;45.148;39.604;2024-01-15T11:50:03;100816.38;;;8.10;60.91
52032;BME280;38044;45.148;39.604;2024-01-15T11:52:37;100825.19;;;8.00;61.16
52032;BME280;38044;45.148;39.604;2024-01-15T11:55:11;100817.41;;;7.83;61.44
52032;BME280;38044;45.148;39.604;2024-01-15T11:57:45;100830.78;;;7.78;61.53
52032;BME280;38044;45.148;39.604;2024-01-15T12:00:12;100821.66;;;7.64;61.51
52032;BME280;38044;45.148;39.604;2024-01-15T12:02:46;100827.25;;;7.52;61.98
52032;BME280;38044;45.148;39.604;2024-01-15T12:05:14;100820.28;;;7.51;61.85
52032;BME280;38044;45.148;39.604;2024-01-15T12:07:41;100819.97;;;7.37;61.79
52032;BME280;38044;45.148;39.604;2024-01-15T12:10:17;100819.44;;;7.35;62.17
52032;BME280;38044;45.148;39.604;2024-01-15T12:13:05;100822.09;;;7.35;61.96
52032;BME280;38044;45.148;39.604;2024-01-15T12:15:32;100812.72;;;7.22;61.87
52032;BME280;38044;45.148;39.604;2024-01-15T12:18:00;100822.63;;;7.27;62.30
52032;BME280;38044;45.148;39.604;2024-01-15T12:20:28;100812.97;;;7.16;62.55
52032;BME280;38044;45.148;39.604;2024-01-15T12:22:54;100825.00;;;7.23;62.30
52032;BME280;38044;45.148;39.604;2024-01-15T12:25:21;100815.38;;;7.17;62.62
52032;BME280;38044;45.148;39.604;2024-01-15T12:27:48;100841.34;;;7.27;62.48
52032;BME280;38044;45.148;39.604;2024-01-15T12:30:14;100830.66;;;7.27;62.17
52032;BME280;38044;45.148;39.604;2024-01-15T12:32:41;100833.34;;;7.27;62.38
52032;BME280;38044;45.148;39.604;2024-01-15T12:35:08;100804.91;;;7.11;63.27
52032;BME280;38044;45.148;39.604;2024-01-15T12:37:43;100839.25;;;7.39;62.71
52032;BME280;38044;45.148;39.604;2024-01-15T12:40:22;100839.78;;;7.47;62.55
52032;BME280;38044;45.148;39.604;2024-01-15T12:42:51;100818.13;;;7.33;62.60
52032;BME280;38044;45.148;39.604;2024-01-15T12:45:17;100834.97;;;7.43;62.78
52032;BME280;38044;45.148;39.604;2024-01-15T12:47:43;100831.78;;;7.41;62.49
52032;BME280;38044;45.148;39.604;2024-01-15T12:50:11;100834.97;;;7.43;62.33
52032;BME280;38044;45.148;39.604;2024-01-15T12:52:39;100835.50;;;7.40;62.97
52032;BME280;38044;45.148;39.604;2024-01-15T12:55:06;100838.44;;;7.39;63.40
52032;BME280;38044;45.148;39.604;2024-01-15T12:57:34;100829.94;;;7.47;62.25
52032;BME280;38044;45.148;39.604;2024-01-15T13:00:00;100835.28;;;7.47;62.04